Historyczne dane pomiarowe

Dodano dane terminowe – wersja testowa.

Dane z okresu 1951-2019

Wersja bazy: 1.34 [2019-03-16, lista zmian], aktualizacja planowana na 2019-04-15

Dane meteo z obszaru Polski uzyskane na podstawie danych udostępnionych przez Instytut Meteorologii i Gospodarki Wodnej – Państwowy Instytut Badawczy.

 

Wybierz Datę:    

       

TemperaturaWilgotnośćWiatrCiśnienieOpadyŚniegCzas trwania zjawisk
 Stacja t tx tn tng RH VA  wxwx mslp ppp RRR   cm mm wxwxwxwxwxwxwx
1957-03-18 -2.7 -0.1 -4.9- 95.0- 6.7 11.3---- 3.2--119---------
1957-03-19 -2.6 -0.4 -6.0- 97.0- 7.7 12.0---- 2.2--120---------
1957-03-20 0.9 4.1 -2.1- 77.5- 5.7 6.3---- 0.0--120---------
1957-03-21 2.2 5.2 0.5- 57.0- 7.0 5.7---- 0.4--116---------
1957-03-22 -3.4 1.0 -5.4- 71.8- 2.3 2.7---- 0.0--112---------
1957-03-23 -0.3 1.2 -4.2- 71.3- 5.7 5.3---- 0.4--110---------
1957-03-24 0.5 1.6 -1.5- 93.5- 8.0 8.0---- 1.7--108---------
1957-03-25 -0.4 1.8 -1.1- 98.5- 7.7 7.0---- 0.4--106---------
1957-03-26 -2.8 -0.2 -4.8- 80.3- 3.7 9.3---- 0.0--104---------
1957-03-27 -1.6 1.6 -6.8- 23.8- 0.0 8.7---- 0.0-- 98---------
1957-03-28 -4.6 -1.6 -5.7- 43.8- 2.7 11.3---- 0.2-- 95---------
1957-03-29 -3.1 -1.6 -6.6- 96.5- 7.7 9.0---- 0.6-- 94---------
1957-03-30 -4.1 -2.4 -5.9- 87.8- 5.7 11.3---- 0.6-- 90---------
1957-03-31 -1.6 0.6 -5.8- 42.8- 3.3 3.7---- 0.0-- 90---------
1957-04-01 0.0 2.4 -2.8- 43.5- 0.7 6.3---- 0.0-- 89---------
1957-04-02 0.4 1.7 -1.4- 52.5- 5.0 8.7---- 0.0-- 86---------
1957-04-03 3.1 5.6 -0.9- 35.5- 2.0 1.3---- 0.0-- 83---------
1957-04-04 0.4 4.1 -2.1- 60.0- 0.7 4.0---- 0.0-- 79---------
1957-04-05 0.6 3.7 -3.0- 36.5- 0.0 4.7---- 0.0-- 72---------
1957-04-06 1.2 4.2 -0.9- 55.8- 0.0 6.7---- 0.0-- 66---------
1957-04-07 -1.9 1.6 -3.9- 83.0- 5.7 3.0---- 7.6-- 60---------
1957-04-08 -8.2 -3.7 -9.0- 92.5- 8.0 6.7---- 9.9-- 68---------
1957-04-09 -7.0 -4.2-13.0- 76.8- 4.7 3.3---- 0.0-- 72---------
1957-04-10 -3.5 -1.2 -8.1- 86.0- 5.3 6.0---- 6.8-- 70---------
1957-04-11 -3.9 -0.7 -6.9- 95.0- 8.0 4.7---- 17.0-- 74---------
1957-04-12 -8.7 -4.8-10.8- 92.0- 8.0 3.7---- 5.6-- 87---------
1957-04-13 -9.0 -4.7-11.0- 88.3- 8.0 2.7---- 5.8-- 92---------
1957-04-14-11.0 -8.4-13.4- 87.3- 7.0 4.3---- 5.7--100---------
1957-04-15-11.1 -8.6-13.1- 89.0- 8.0 7.7---- 9.4--107---------
1957-04-16 -7.7 -4.6-13.8- 85.3- 3.0 9.3---- 0.0--115---------
190.0 ms

 

Źródłem pochodzenia danych jest Instytut Meteorologii i Gospodarki Wodnej – Państwowy Instytut Badawczy. Dane Instytutu Meteorologii i Gospodarki Wodnej – Państwowego Instytutu Badawczego zostały przetworzone.

Dane źródłowe można odnaleźć na stronie https://dane.imgw.pl